Terminal Aerodrome Forecast
Issued by NWS

Home | Current Version | Previous Version | Text Only | Print | Product List | Glossary On
Versions: 1 2 3 4 5 6 7 8 9 10 11 12 13 14 15 16 17 18 19 20
000
FTUS41 KBTV 261218 AAA
TAFMPV
TAF AMD
KMPV 261218Z 2612/2712 VRB03KT 4SM -RA BR BKN003 OVC008
      TEMPO 2612/2616 6SM BR SCT005 OVC010
     FM261600 14005KT P6SM VCSH OVC011
     FM261900 14005KT P6SM OVC018
     FM270000 VRB03KT P6SM OVC025=

USA.gov is the U.S. government's official web portal to all federal, state and local government web resources and services.